sensor_id;sensor_type;location;lat;lon;timestamp;temperature;humidity
7214;DHT22;3648;50.614;13.830;2023-10-08T00:02:04;18.50;99.90
7214;DHT22;3648;50.614;13.830;2023-10-08T00:04:33;18.50;99.90
7214;DHT22;3648;50.614;13.830;2023-10-08T00:07:03;18.50;99.90
7214;DHT22;3648;50.614;13.830;2023-10-08T00:09:32;18.50;99.90
7214;DHT22;3648;50.614;13.830;2023-10-08T00:12:02;18.50;99.90
7214;DHT22;3648;50.614;13.830;2023-10-08T00:14:30;18.50;99.90
7214;DHT22;3648;50.614;13.830;2023-10-08T00:16:58;18.50;99.90
7214;DHT22;3648;50.614;13.830;2023-10-08T00:19:26;18.50;99.90
7214;DHT22;3648;50.614;13.830;2023-10-08T00:22:00;18.50;99.90
7214;DHT22;3648;50.614;13.830;2023-10-08T00:24:32;18.50;99.90
7214;DHT22;3648;50.614;13.830;2023-10-08T00:26:59;18.40;99.90
7214;DHT22;3648;50.614;13.830;2023-10-08T00:29:28;18.50;99.90
7214;DHT22;3648;50.614;13.830;2023-10-08T00:31:58;18.50;99.90
7214;DHT22;3648;50.614;13.830;2023-10-08T00:34:28;18.40;99.90
7214;DHT22;3648;50.614;13.830;2023-10-08T00:36:55;18.50;99.90
7214;DHT22;3648;50.614;13.830;2023-10-08T00:39:25;18.40;99.90
7214;DHT22;3648;50.614;13.830;2023-10-08T00:41:53;18.40;99.90
7214;DHT22;3648;50.614;13.830;2023-10-08T00:44:24;18.40;99.90
7214;DHT22;3648;50.614;13.830;2023-10-08T00:46:56;18.40;99.90
7214;DHT22;3648;50.614;13.830;2023-10-08T00:49:27;18.40;99.90
7214;DHT22;3648;50.614;13.830;2023-10-08T00:52:14;18.40;99.90
7214;DHT22;3648;50.614;13.830;2023-10-08T00:55:02;18.40;99.90
7214;DHT22;3648;50.614;13.830;2023-10-08T00:57:52;18.40;99.90
7214;DHT22;3648;50.614;13.830;2023-10-08T01:00:34;18.50;99.90
7214;DHT22;3648;50.614;13.830;2023-10-08T01:03:06;18.40;99.90
7214;DHT22;3648;50.614;13.830;2023-10-08T01:05:40;18.40;99.90
7214;DHT22;3648;50.614;13.830;2023-10-08T01:08:13;18.40;99.90
7214;DHT22;3648;50.614;13.830;2023-10-08T01:10:45;18.40;99.90
7214;DHT22;3648;50.614;13.830;2023-10-08T01:13:13;18.40;99.90
7214;DHT22;3648;50.614;13.830;2023-10-08T01:15:45;18.40;99.90
7214;DHT22;3648;50.614;13.830;2023-10-08T01:18:15;18.40;99.90
7214;DHT22;3648;50.614;13.830;2023-10-08T01:20:52;18.40;99.90
7214;DHT22;3648;50.614;13.830;2023-10-08T01:23:20;18.40;99.90
7214;DHT22;3648;50.614;13.830;2023-10-08T01:25:49;18.40;99.90
7214;DHT22;3648;50.614;13.830;2023-10-08T01:28:18;18.40;99.90
7214;DHT22;3648;50.614;13.830;2023-10-08T01:30:51;18.40;99.90
7214;DHT22;3648;50.614;13.830;2023-10-08T01:33:19;18.40;99.90
7214;DHT22;3648;50.614;13.830;2023-10-08T01:35:54;18.30;99.90
7214;DHT22;3648;50.614;13.830;2023-10-08T01:38:28;18.30;99.90
7214;DHT22;3648;50.614;13.830;2023-10-08T01:40:56;18.30;99.90
7214;DHT22;3648;50.614;13.830;2023-10-08T01:43:28;18.30;99.90
7214;DHT22;3648;50.614;13.830;2023-10-08T01:45:55;18.30;99.90
7214;DHT22;3648;50.614;13.830;2023-10-08T01:48:22;18.30;99.90
7214;DHT22;3648;50.614;13.830;2023-10-08T01:50:54;18.30;99.90
7214;DHT22;3648;50.614;13.830;2023-10-08T01:53:28;18.30;99.90
7214;DHT22;3648;50.614;13.830;2023-10-08T01:55:56;18.30;99.90
7214;DHT22;3648;50.614;13.830;2023-10-08T01:58:24;18.30;99.90
7214;DHT22;3648;50.614;13.830;2023-10-08T02:00:51;18.30;99.90
7214;DHT22;3648;50.614;13.830;2023-10-08T02:03:20;18.30;99.90
7214;DHT22;3648;50.614;13.830;2023-10-08T02:05:48;18.30;99.90
7214;DHT22;3648;50.614;13.830;2023-10-08T02:08:19;18.30;99.90
7214;DHT22;3648;50.614;13.830;2023-10-08T02:10:48;18.30;99.90
7214;DHT22;3648;50.614;13.830;2023-10-08T02:13:15;18.20;99.90
7214;DHT22;3648;50.614;13.830;2023-10-08T02:15:49;18.20;99.90
7214;DHT22;3648;50.614;13.830;2023-10-08T02:18:17;18.20;99.90
7214;DHT22;3648;50.614;13.830;2023-10-08T02:20:44;18.20;99.90
7214;DHT22;3648;50.614;13.830;2023-10-08T02:23:12;18.20;99.90
7214;DHT22;3648;50.614;13.830;2023-10-08T02:25:39;18.20;99.90
7214;DHT22;3648;50.614;13.830;2023-10-08T02:28:08;18.20;99.90
7214;DHT22;3648;50.614;13.830;2023-10-08T02:30:38;18.10;99.90
7214;DHT22;3648;50.614;13.830;2023-10-08T02:33:05;18.10;99.90
7214;DHT22;3648;50.614;13.830;2023-10-08T02:35:40;18.10;99.90
7214;DHT22;3648;50.614;13.830;2023-10-08T02:38:08;18.00;99.90
7214;DHT22;3648;50.614;13.830;2023-10-08T02:40:37;18.10;99.90
7214;DHT22;3648;50.614;13.830;2023-10-08T02:43:11;18.00;99.90
7214;DHT22;3648;50.614;13.830;2023-10-08T02:45:40;18.00;99.90
7214;DHT22;3648;50.614;13.830;2023-10-08T02:48:07;18.00;99.90
7214;DHT22;3648;50.614;13.830;2023-10-08T02:50:38;18.00;99.90
7214;DHT22;3648;50.614;13.830;2023-10-08T02:53:06;18.00;99.90
7214;DHT22;3648;50.614;13.830;2023-10-08T02:55:36;18.00;99.90
7214;DHT22;3648;50.614;13.830;2023-10-08T02:58:08;17.90;99.90
7214;DHT22;3648;50.614;13.830;2023-10-08T03:00:41;18.00;99.90
7214;DHT22;3648;50.614;13.830;2023-10-08T03:03:08;17.90;99.90
7214;DHT22;3648;50.614;13.830;2023-10-08T03:05:43;17.90;99.90
7214;DHT22;3648;50.614;13.830;2023-10-08T03:08:12;17.90;99.90
7214;DHT22;3648;50.614;13.830;2023-10-08T03:10:39;17.90;99.90
7214;DHT22;3648;50.614;13.830;2023-10-08T03:13:07;17.90;99.90
7214;DHT22;3648;50.614;13.830;2023-10-08T03:15:36;17.80;99.90
7214;DHT22;3648;50.614;13.830;2023-10-08T03:18:08;17.80;99.90
7214;DHT22;3648;50.614;13.830;2023-10-08T03:20:40;17.80;99.90
7214;DHT22;3648;50.614;13.830;2023-10-08T03:23:11;17.70;99.90
7214;DHT22;3648;50.614;13.830;2023-10-08T03:25:53;17.70;99.90
7214;DHT22;3648;50.614;13.830;2023-10-08T03:28:25;17.60;99.90
7214;DHT22;3648;50.614;13.830;2023-10-08T03:30:54;17.60;99.90
7214;DHT22;3648;50.614;13.830;2023-10-08T03:33:31;17.50;99.90
7214;DHT22;3648;50.614;13.830;2023-10-08T03:36:01;17.50;99.90
7214;DHT22;3648;50.614;13.830;2023-10-08T03:38:36;17.10;99.90
7214;DHT22;3648;50.614;13.830;2023-10-08T03:41:17;16.70;99.90
7214;DHT22;3648;50.614;13.830;2023-10-08T03:43:46;16.30;99.90
7214;DHT22;3648;50.614;13.830;2023-10-08T03:46:23;16.10;99.90
7214;DHT22;3648;50.614;13.830;2023-10-08T03:48:53;15.80;99.90
7214;DHT22;3648;50.614;13.830;2023-10-08T03:51:23;15.70;99.90
7214;DHT22;3648;50.614;13.830;2023-10-08T03:53:53;15.40;99.90
7214;DHT22;3648;50.614;13.830;2023-10-08T03:56:41;15.20;99.90
7214;DHT22;3648;50.614;13.830;2023-10-08T03:59:12;15.00;99.90
7214;DHT22;3648;50.614;13.830;2023-10-08T04:01:40;14.80;99.90
7214;DHT22;3648;50.614;13.830;2023-10-08T04:04:09;14.60;99.90
7214;DHT22;3648;50.614;13.830;2023-10-08T04:06:40;14.60;99.90
7214;DHT22;3648;50.614;13.830;2023-10-08T04:09:14;14.50;99.90
7214;DHT22;3648;50.614;13.830;2023-10-08T04:11:51;14.30;99.90
7214;DHT22;3648;50.614;13.830;2023-10-08T04:14:19;14.20;99.90
7214;DHT22;3648;50.614;13.830;2023-10-08T04:16:47;14.20;99.90
7214;DHT22;3648;50.614;13.830;2023-10-08T04:19:19;14.20;99.90
7214;DHT22;3648;50.614;13.830;2023-10-08T04:21:46;14.20;99.90
7214;DHT22;3648;50.614;13.830;2023-10-08T04:24:21;14.10;99.90
7214;DHT22;3648;50.614;13.830;2023-10-08T04:26:55;14.00;99.90
7214;DHT22;3648;50.614;13.830;2023-10-08T04:29:24;14.00;99.90
7214;DHT22;3648;50.614;13.830;2023-10-08T04:31:52;14.00;99.90
7214;DHT22;3648;50.614;13.830;2023-10-08T04:34:34;13.90;99.90
7214;DHT22;3648;50.614;13.830;2023-10-08T04:37:02;13.80;99.90
7214;DHT22;3648;50.614;13.830;2023-10-08T04:39:30;13.80;99.90
7214;DHT22;3648;50.614;13.830;2023-10-08T04:42:00;13.70;99.90
7214;DHT22;3648;50.614;13.830;2023-10-08T04:44:32;13.50;99.90
7214;DHT22;3648;50.614;13.830;2023-10-08T04:46:59;13.40;99.90
7214;DHT22;3648;50.614;13.830;2023-10-08T04:49:34;13.30;99.90
7214;DHT22;3648;50.614;13.830;2023-10-08T04:52:05;13.20;99.90
7214;DHT22;3648;50.614;13.830;2023-10-08T04:54:40;13.00;99.90
7214;DHT22;3648;50.614;13.830;2023-10-08T04:57:17;12.90;99.90
7214;DHT22;3648;50.614;13.830;2023-10-08T04:59:48;12.80;99.90
7214;DHT22;3648;50.614;13.830;2023-10-08T05:02:16;12.70;99.90
7214;DHT22;3648;50.614;13.830;2023-10-08T05:04:50;12.60;99.90
7214;DHT22;3648;50.614;13.830;2023-10-08T05:07:43;12.60;99.90
7214;DHT22;3648;50.614;13.830;2023-10-08T05:10:43;12.40;99.90
7214;DHT22;3648;50.614;13.830;2023-10-08T05:13:42;12.30;99.90
7214;DHT22;3648;50.614;13.830;2023-10-08T05:16:22;12.20;99.90
7214;DHT22;3648;50.614;13.830;2023-10-08T05:19:02;12.10;99.90
7214;DHT22;3648;50.614;13.830;2023-10-08T05:21:41;12.00;99.90
7214;DHT22;3648;50.614;13.830;2023-10-08T05:24:18;12.10;99.90
7214;DHT22;3648;50.614;13.830;2023-10-08T05:26:53;12.00;99.90
7214;DHT22;3648;50.614;13.830;2023-10-08T05:29:40;11.90;99.90
7214;DHT22;3648;50.614;13.830;2023-10-08T05:32:37;11.90;99.90
7214;DHT22;3648;50.614;13.830;2023-10-08T05:35:09;11.80;99.90
7214;DHT22;3648;50.614;13.830;2023-10-08T05:37:58;11.60;99.90
7214;DHT22;3648;50.614;13.830;2023-10-08T05:40:39;11.40;99.90
7214;DHT22;3648;50.614;13.830;2023-10-08T05:43:19;11.30;99.90
7214;DHT22;3648;50.614;13.830;2023-10-08T05:46:11;11.20;99.90
7214;DHT22;3648;50.614;13.830;2023-10-08T05:49:04;11.00;99.90
7214;DHT22;3648;50.614;13.830;2023-10-08T05:51:51;10.90;99.90
7214;DHT22;3648;50.614;13.830;2023-10-08T05:54:34;10.90;99.90
7214;DHT22;3648;50.614;13.830;2023-10-08T05:57:13;10.80;99.90
7214;DHT22;3648;50.614;13.830;2023-10-08T05:59:50;10.70;99.90
7214;DHT22;3648;50.614;13.830;2023-10-08T06:02:34;10.60;99.90
7214;DHT22;3648;50.614;13.830;2023-10-08T06:05:25;10.60;99.90
7214;DHT22;3648;50.614;13.830;2023-10-08T06:07:59;10.50;99.90
7214;DHT22;3648;50.614;13.830;2023-10-08T06:10:38;10.50;99.90
7214;DHT22;3648;50.614;13.830;2023-10-08T06:13:11;10.40;99.90
7214;DHT22;3648;50.614;13.830;2023-10-08T06:15:42;10.40;99.90
7214;DHT22;3648;50.614;13.830;2023-10-08T06:18:14;10.40;99.90
7214;DHT22;3648;50.614;13.830;2023-10-08T06:20:40;10.30;99.90
7214;DHT22;3648;50.614;13.830;2023-10-08T06:23:10;10.30;99.90
7214;DHT22;3648;50.614;13.830;2023-10-08T06:25:40;10.30;99.90
7214;DHT22;3648;50.614;13.830;2023-10-08T06:28:20;10.30;99.90
7214;DHT22;3648;50.614;13.830;2023-10-08T06:30:50;10.30;99.90
7214;DHT22;3648;50.614;13.830;2023-10-08T06:33:19;10.40;99.90
7214;DHT22;3648;50.614;13.830;2023-10-08T06:35:47;10.50;99.90
7214;DHT22;3648;50.614;13.830;2023-10-08T06:38:27;10.50;99.90
7214;DHT22;3648;50.614;13.830;2023-10-08T06:40:58;10.50;99.90
7214;DHT22;3648;50.614;13.830;2023-10-08T06:43:26;10.60;99.90
7214;DHT22;3648;50.614;13.830;2023-10-08T06:45:54;10.50;99.90
7214;DHT22;3648;50.614;13.830;2023-10-08T06:48:24;10.50;99.90
7214;DHT22;3648;50.614;13.830;2023-10-08T06:50:52;10.50;99.90
7214;DHT22;3648;50.614;13.830;2023-10-08T06:53:23;10.60;1.00
7214;DHT22;3648;50.614;13.830;2023-10-08T06:55:51;10.60;1.00
7214;DHT22;3648;50.614;13.830;2023-10-08T06:58:23;10.60;1.00
7214;DHT22;3648;50.614;13.830;2023-10-08T07:00:51;10.60;1.00
7214;DHT22;3648;50.614;13.830;2023-10-08T07:03:20;10.60;1.00
7214;DHT22;3648;50.614;13.830;2023-10-08T07:05:49;10.70;1.00
7214;DHT22;3648;50.614;13.830;2023-10-08T07:08:26;10.70;1.00
7214;DHT22;3648;50.614;13.830;2023-10-08T07:10:55;10.70;1.00
7214;DHT22;3648;50.614;13.830;2023-10-08T07:13:24;10.70;1.00
7214;DHT22;3648;50.614;13.830;2023-10-08T07:15:52;10.70;1.00
7214;DHT22;3648;50.614;13.830;2023-10-08T07:18:20;10.70;1.00
7214;DHT22;3648;50.614;13.830;2023-10-08T07:20:51;10.70;1.00
7214;DHT22;3648;50.614;13.830;2023-10-08T07:23:21;10.70;1.00
7214;DHT22;3648;50.614;13.830;2023-10-08T07:25:53;10.70;1.00
7214;DHT22;3648;50.614;13.830;2023-10-08T07:28:25;10.60;1.00
7214;DHT22;3648;50.614;13.830;2023-10-08T07:30:54;10.60;1.00
7214;DHT22;3648;50.614;13.830;2023-10-08T07:33:23;10.60;1.00
7214;DHT22;3648;50.614;13.830;2023-10-08T07:36:05;10.50;1.00
7214;DHT22;3648;50.614;13.830;2023-10-08T07:38:40;10.50;1.00
7214;DHT22;3648;50.614;13.830;2023-10-08T07:41:08;10.50;1.00
7214;DHT22;3648;50.614;13.830;2023-10-08T07:43:39;10.50;99.90
7214;DHT22;3648;50.614;13.830;2023-10-08T07:46:07;10.40;99.90
7214;DHT22;3648;50.614;13.830;2023-10-08T07:48:35;10.40;99.90
7214;DHT22;3648;50.614;13.830;2023-10-08T07:51:01;10.40;99.90
7214;DHT22;3648;50.614;13.830;2023-10-08T07:53:28;10.30;99.90
7214;DHT22;3648;50.614;13.830;2023-10-08T07:56:04;10.20;99.90
7214;DHT22;3648;50.614;13.830;2023-10-08T07:58:34;10.20;99.90
7214;DHT22;3648;50.614;13.830;2023-10-08T08:01:05;10.10;99.90
7214;DHT22;3648;50.614;13.830;2023-10-08T08:03:33;10.10;99.90
7214;DHT22;3648;50.614;13.830;2023-10-08T08:06:02;10.20;99.90
7214;DHT22;3648;50.614;13.830;2023-10-08T08:08:32;10.20;99.90
7214;DHT22;3648;50.614;13.830;2023-10-08T08:10:59;10.20;99.90
7214;DHT22;3648;50.614;13.830;2023-10-08T08:13:31;10.20;99.90
7214;DHT22;3648;50.614;13.830;2023-10-08T08:15:59;10.30;99.90
7214;DHT22;3648;50.614;13.830;2023-10-08T08:18:36;10.30;99.90
7214;DHT22;3648;50.614;13.830;2023-10-08T08:21:08;10.30;99.90
7214;DHT22;3648;50.614;13.830;2023-10-08T08:23:40;10.30;99.90
7214;DHT22;3648;50.614;13.830;2023-10-08T08:26:07;10.20;99.90
7214;DHT22;3648;50.614;13.830;2023-10-08T08:28:38;10.40;99.90
7214;DHT22;3648;50.614;13.830;2023-10-08T08:31:06;10.40;99.90
7214;DHT22;3648;50.614;13.830;2023-10-08T08:33:44;10.40;99.90
7214;DHT22;3648;50.614;13.830;2023-10-08T08:36:23;10.50;99.90
7214;DHT22;3648;50.614;13.830;2023-10-08T08:38:50;10.40;99.90
7214;DHT22;3648;50.614;13.830;2023-10-08T08:41:18;10.40;99.90
7214;DHT22;3648;50.614;13.830;2023-10-08T08:43:50;10.40;99.90
7214;DHT22;3648;50.614;13.830;2023-10-08T08:46:27;10.60;99.90
7214;DHT22;3648;50.614;13.830;2023-10-08T08:49:00;10.60;99.90
7214;DHT22;3648;50.614;13.830;2023-10-08T08:51:28;10.60;99.90
7214;DHT22;3648;50.614;13.830;2023-10-08T08:53:56;10.70;99.90
7214;DHT22;3648;50.614;13.830;2023-10-08T08:56:32;10.80;99.90
7214;DHT22;3648;50.614;13.830;2023-10-08T08:59:00;10.80;99.90
7214;DHT22;3648;50.614;13.830;2023-10-08T09:01:29;10.80;99.90
7214;DHT22;3648;50.614;13.830;2023-10-08T09:04:01;11.00;99.90
7214;DHT22;3648;50.614;13.830;2023-10-08T09:06:32;11.00;99.90
7214;DHT22;3648;50.614;13.830;2023-10-08T09:08:59;11.10;99.90
7214;DHT22;3648;50.614;13.830;2023-10-08T09:11:40;11.10;99.90
7214;DHT22;3648;50.614;13.830;2023-10-08T09:14:08;11.20;99.90
7214;DHT22;3648;50.614;13.830;2023-10-08T09:16:37;11.20;99.90
7214;DHT22;3648;50.614;13.830;2023-10-08T09:19:06;11.30;99.90
7214;DHT22;3648;50.614;13.830;2023-10-08T09:21:37;11.30;99.90
7214;DHT22;3648;50.614;13.830;2023-10-08T09:24:05;11.30;99.90
7214;DHT22;3648;50.614;13.830;2023-10-08T09:26:37;11.30;99.90
7214;DHT22;3648;50.614;13.830;2023-10-08T09:29:05;11.30;99.90
7214;DHT22;3648;50.614;13.830;2023-10-08T09:31:34;11.20;99.90
7214;DHT22;3648;50.614;13.830;2023-10-08T09:34:03;11.30;99.90
7214;DHT22;3648;50.614;13.830;2023-10-08T09:36:32;11.30;99.90
7214;DHT22;3648;50.614;13.830;2023-10-08T09:39:01;11.30;99.90
7214;DHT22;3648;50.614;13.830;2023-10-08T09:41:31;11.30;99.90
7214;DHT22;3648;50.614;13.830;2023-10-08T09:43:59;11.30;99.90
7214;DHT22;3648;50.614;13.830;2023-10-08T09:46:30;11.30;99.90
7214;DHT22;3648;50.614;13.830;2023-10-08T09:49:00;11.30;99.90
7214;DHT22;3648;50.614;13.830;2023-10-08T09:51:29;11.40;99.90
7214;DHT22;3648;50.614;13.830;2023-10-08T09:54:05;11.40;99.90
7214;DHT22;3648;50.614;13.830;2023-10-08T09:56:36;11.50;99.90
7214;DHT22;3648;50.614;13.830;2023-10-08T09:59:05;11.60;99.90
7214;DHT22;3648;50.614;13.830;2023-10-08T10:01:35;11.60;99.90
7214;DHT22;3648;50.614;13.830;2023-10-08T10:04:06;11.60;99.90
7214;DHT22;3648;50.614;13.830;2023-10-08T10:06:33;11.60;99.90
7214;DHT22;3648;50.614;13.830;2023-10-08T10:09:05;11.60;99.90
7214;DHT22;3648;50.614;13.830;2023-10-08T10:11:35;11.60;99.90
7214;DHT22;3648;50.614;13.830;2023-10-08T10:14:03;11.60;99.90
7214;DHT22;3648;50.614;13.830;2023-10-08T10:16:32;11.70;99.90
7214;DHT22;3648;50.614;13.830;2023-10-08T10:19:02;11.70;99.90
7214;DHT22;3648;50.614;13.830;2023-10-08T10:21:33;11.70;99.90
7214;DHT22;3648;50.614;13.830;2023-10-08T10:24:00;11.80;99.90
7214;DHT22;3648;50.614;13.830;2023-10-08T10:26:33;11.90;99.90
7214;DHT22;3648;50.614;13.830;2023-10-08T10:29:19;11.90;99.90
7214;DHT22;3648;50.614;13.830;2023-10-08T10:31:46;12.00;99.90
7214;DHT22;3648;50.614;13.830;2023-10-08T10:34:16;12.00;99.90
7214;DHT22;3648;50.614;13.830;2023-10-08T10:36:47;12.10;99.90
7214;DHT22;3648;50.614;13.830;2023-10-08T10:39:16;12.00;99.90
7214;DHT22;3648;50.614;13.830;2023-10-08T10:41:54;12.10;99.90
7214;DHT22;3648;50.614;13.830;2023-10-08T10:44:27;12.20;99.90
7214;DHT22;3648;50.614;13.830;2023-10-08T10:46:56;12.20;99.90
7214;DHT22;3648;50.614;13.830;2023-10-08T10:49:37;12.20;99.90
7214;DHT22;3648;50.614;13.830;2023-10-08T10:52:14;12.30;99.90
7214;DHT22;3648;50.614;13.830;2023-10-08T10:54:44;12.30;99.90
7214;DHT22;3648;50.614;13.830;2023-10-08T10:57:26;12.40;99.90
7214;DHT22;3648;50.614;13.830;2023-10-08T11:00:02;12.30;99.90
7214;DHT22;3648;50.614;13.830;2023-10-08T11:02:44;12.40;99.90
7214;DHT22;3648;50.614;13.830;2023-10-08T11:05:15;12.40;99.90
7214;DHT22;3648;50.614;13.830;2023-10-08T11:07:46;12.40;99.90
7214;DHT22;3648;50.614;13.830;2023-10-08T11:10:13;12.50;99.90
7214;DHT22;3648;50.614;13.830;2023-10-08T11:12:43;12.40;99.90
7214;DHT22;3648;50.614;13.830;2023-10-08T11:15:13;12.60;99.90
7214;DHT22;3648;50.614;13.830;2023-10-08T11:17:41;12.40;99.90
7214;DHT22;3648;50.614;13.830;2023-10-08T11:20:23;12.30;99.90
7214;DHT22;3648;50.614;13.830;2023-10-08T11:22:50;12.20;99.90
7214;DHT22;3648;50.614;13.830;2023-10-08T11:25:23;12.40;99.90
7214;DHT22;3648;50.614;13.830;2023-10-08T11:27:57;12.40;99.90
7214;DHT22;3648;50.614;13.830;2023-10-08T11:30:28;12.40;99.90
7214;DHT22;3648;50.614;13.830;2023-10-08T11:32:57;12.30;99.90
7214;DHT22;3648;50.614;13.830;2023-10-08T11:35:25;12.50;99.90
7214;DHT22;3648;50.614;13.830;2023-10-08T11:37:59;12.60;99.90
7214;DHT22;3648;50.614;13.830;2023-10-08T11:40:27;12.70;99.90
7214;DHT22;3648;50.614;13.830;2023-10-08T11:42:57;12.70;99.90
7214;DHT22;3648;50.614;13.830;2023-10-08T11:45:25;12.60;99.90
7214;DHT22;3648;50.614;13.830;2023-10-08T11:47:54;12.60;99.90
7214;DHT22;3648;50.614;13.830;2023-10-08T11:50:29;12.50;99.90
7214;DHT22;3648;50.614;13.830;2023-10-08T11:53:01;12.60;99.90
7214;DHT22;3648;50.614;13.830;2023-10-08T11:55:29;12.60;99.90
7214;DHT22;3648;50.614;13.830;2023-10-08T11:58:01;12.70;99.90
7214;DHT22;3648;50.614;13.830;2023-10-08T12:00:36;12.60;99.90
7214;DHT22;3648;50.614;13.830;2023-10-08T12:03:09;12.50;99.90
7214;DHT22;3648;50.614;13.830;2023-10-08T12:05:37;12.60;99.90
7214;DHT22;3648;50.614;13.830;2023-10-08T12:08:13;12.60;99.90
7214;DHT22;3648;50.614;13.830;2023-10-08T12:10:42;12.60;99.90
7214;DHT22;3648;50.614;13.830;2023-10-08T12:13:13;12.80;99.90
7214;DHT22;3648;50.614;13.830;2023-10-08T12:15:41;12.80;99.90
7214;DHT22;3648;50.614;13.830;2023-10-08T12:18:10;12.90;99.90
7214;DHT22;3648;50.614;13.830;2023-10-08T12:20:41;13.00;99.90
7214;DHT22;3648;50.614;13.830;2023-10-08T12:23:12;12.90;99.90
7214;DHT22;3648;50.614;13.830;2023-10-08T12:25:48;13.00;99.90
7214;DHT22;3648;50.614;13.830;2023-10-08T12:28:19;13.10;99.90
7214;DHT22;3648;50.614;13.830;2023-10-08T12:30:49;13.20;99.90
7214;DHT22;3648;50.614;13.830;2023-10-08T12:33:18;13.10;99.90
7214;DHT22;3648;50.614;13.830;2023-10-08T12:35:46;13.10;99.90
7214;DHT22;3648;50.614;13.830;2023-10-08T12:38:13;13.20;99.90
7214;DHT22;3648;50.614;13.830;2023-10-08T12:40:40;13.00;99.90
7214;DHT22;3648;50.614;13.830;2023-10-08T12:43:19;13.00;99.90
7214;DHT22;3648;50.614;13.830;2023-10-08T12:45:47;13.10;99.90
7214;DHT22;3648;50.614;13.830;2023-10-08T12:48:20;13.10;99.90
7214;DHT22;3648;50.614;13.830;2023-10-08T12:50:48;13.20;99.90
7214;DHT22;3648;50.614;13.830;2023-10-08T12:53:22;13.20;99.90
7214;DHT22;3648;50.614;13.830;2023-10-08T12:55:53;13.20;99.90
7214;DHT22;3648;50.614;13.830;2023-10-08T12:58:25;13.20;99.90
7214;DHT22;3648;50.614;13.830;2023-10-08T13:00:55;13.20;99.90
7214;DHT22;3648;50.614;13.830;2023-10-08T13:03:27;13.20;99.90
7214;DHT22;3648;50.614;13.830;2023-10-08T13:05:57;13.20;99.90
7214;DHT22;3648;50.614;13.830;2023-10-08T13:08:29;13.30;99.90
7214;DHT22;3648;50.614;13.830;2023-10-08T13:10:57;13.40;99.90
7214;DHT22;3648;50.614;13.830;2023-10-08T13:13:28;13.50;99.90
7214;DHT22;3648;50.614;13.830;2023-10-08T13:15:55;13.60;99.90
7214;DHT22;3648;50.614;13.830;2023-10-08T13:18:26;13.60;99.90
7214;DHT22;3648;50.614;13.830;2023-10-08T13:21:01;13.80;99.90
7214;DHT22;3648;50.614;13.830;2023-10-08T13:23:29;13.90;99.90
7214;DHT22;3648;50.614;13.830;2023-10-08T13:25:59;14.10;99.90
7214;DHT22;3648;50.614;13.830;2023-10-08T13:28:31;14.30;99.90
7214;DHT22;3648;50.614;13.830;2023-10-08T13:30:59;14.40;99.90
7214;DHT22;3648;50.614;13.830;2023-10-08T13:33:32;14.40;99.90
7214;DHT22;3648;50.614;13.830;2023-10-08T13:35:59;14.50;99.90
7214;DHT22;3648;50.614;13.830;2023-10-08T13:38:26;14.60;99.90
7214;DHT22;3648;50.614;13.830;2023-10-08T13:40:53;14.70;99.90
7214;DHT22;3648;50.614;13.830;2023-10-08T13:43:32;14.70;99.90
7214;DHT22;3648;50.614;13.830;2023-10-08T13:46:04;14.80;99.90
7214;DHT22;3648;50.614;13.830;2023-10-08T13:48:32;14.80;99.90
7214;DHT22;3648;50.614;13.830;2023-10-08T13:51:01;15.00;99.90
7214;DHT22;3648;50.614;13.830;2023-10-08T13:53:30;14.90;99.90
7214;DHT22;3648;50.614;13.830;2023-10-08T13:55:58;14.80;99.90
7214;DHT22;3648;50.614;13.830;2023-10-08T13:58:27;14.70;99.90
7214;DHT22;3648;50.614;13.830;2023-10-08T14:00:57;14.60;99.90
7214;DHT22;3648;50.614;13.830;2023-10-08T14:03:26;14.70;99.90
7214;DHT22;3648;50.614;13.830;2023-10-08T14:05:57;14.70;99.90
7214;DHT22;3648;50.614;13.830;2023-10-08T14:08:28;14.70;99.90
7214;DHT22;3648;50.614;13.830;2023-10-08T14:10:56;14.70;99.90
7214;DHT22;3648;50.614;13.830;2023-10-08T14:13:29;14.70;99.90
7214;DHT22;3648;50.614;13.830;2023-10-08T14:15:58;14.70;99.90
7214;DHT22;3648;50.614;13.830;2023-10-08T14:18:30;14.60;99.90
7214;DHT22;3648;50.614;13.830;2023-10-08T14:21:06;14.60;99.90
7214;DHT22;3648;50.614;13.830;2023-10-08T14:23:36;14.50;99.90
7214;DHT22;3648;50.614;13.830;2023-10-08T14:26:06;14.60;99.90
7214;DHT22;3648;50.614;13.830;2023-10-08T14:28:33;14.50;99.90
7214;DHT22;3648;50.614;13.830;2023-10-08T14:31:11;14.50;99.90
7214;DHT22;3648;50.614;13.830;2023-10-08T14:33:41;14.40;99.90
7214;DHT22;3648;50.614;13.830;2023-10-08T14:36:22;14.30;99.90
7214;DHT22;3648;50.614;13.830;2023-10-08T14:39:06;14.30;99.90
7214;DHT22;3648;50.614;13.830;2023-10-08T14:41:50;14.30;99.90
7214;DHT22;3648;50.614;13.830;2023-10-08T14:44:34;14.30;99.90
7214;DHT22;3648;50.614;13.830;2023-10-08T14:47:04;14.20;99.90
7214;DHT22;3648;50.614;13.830;2023-10-08T14:49:32;14.20;99.90
7214;DHT22;3648;50.614;13.830;2023-10-08T14:52:00;14.20;99.90
7214;DHT22;3648;50.614;13.830;2023-10-08T14:54:30;14.20;99.90
7214;DHT22;3648;50.614;13.830;2023-10-08T14:56:59;14.20;99.90
7214;DHT22;3648;50.614;13.830;2023-10-08T14:59:28;14.00;99.90
7214;DHT22;3648;50.614;13.830;2023-10-08T15:01:56;14.10;99.90
7214;DHT22;3648;50.614;13.830;2023-10-08T15:04:25;14.10;99.90
7214;DHT22;3648;50.614;13.830;2023-10-08T15:06:54;14.10;99.90
7214;DHT22;3648;50.614;13.830;2023-10-08T15:09:22;14.10;99.90
7214;DHT22;3648;50.614;13.830;2023-10-08T15:11:49;14.10;99.90
7214;DHT22;3648;50.614;13.830;2023-10-08T15:14:17;14.00;99.90
7214;DHT22;3648;50.614;13.830;2023-10-08T15:16:45;14.00;99.90
7214;DHT22;3648;50.614;13.830;2023-10-08T15:19:18;14.00;99.90
7214;DHT22;3648;50.614;13.830;2023-10-08T15:21:46;13.90;99.90
7214;DHT22;3648;50.614;13.830;2023-10-08T15:24:16;13.70;99.90
7214;DHT22;3648;50.614;13.830;2023-10-08T15:26:43;13.80;99.90
7214;DHT22;3648;50.614;13.830;2023-10-08T15:29:13;13.80;99.90
7214;DHT22;3648;50.614;13.830;2023-10-08T15:31:40;13.80;99.90
7214;DHT22;3648;50.614;13.830;2023-10-08T15:34:08;13.80;99.90
7214;DHT22;3648;50.614;13.830;2023-10-08T15:36:38;13.70;99.90
7214;DHT22;3648;50.614;13.830;2023-10-08T15:39:07;13.70;99.90
7214;DHT22;3648;50.614;13.830;2023-10-08T15:41:37;13.70;99.90
7214;DHT22;3648;50.614;13.830;2023-10-08T15:44:04;13.60;99.90
7214;DHT22;3648;50.614;13.830;2023-10-08T15:46:31;13.50;99.90
7214;DHT22;3648;50.614;13.830;2023-10-08T15:49:01;13.40;99.90
7214;DHT22;3648;50.614;13.830;2023-10-08T15:51:29;13.50;99.90
7214;DHT22;3648;50.614;13.830;2023-10-08T15:53:58;13.40;99.90
7214;DHT22;3648;50.614;13.830;2023-10-08T15:56:27;13.40;99.90
7214;DHT22;3648;50.614;13.830;2023-10-08T15:58:54;13.30;99.90
7214;DHT22;3648;50.614;13.830;2023-10-08T16:01:21;13.20;99.90
7214;DHT22;3648;50.614;13.830;2023-10-08T16:03:48;13.20;99.90
7214;DHT22;3648;50.614;13.830;2023-10-08T16:06:17;13.20;99.90
7214;DHT22;3648;50.614;13.830;2023-10-08T16:08:44;13.20;99.90
7214;DHT22;3648;50.614;13.830;2023-10-08T16:11:12;13.20;99.90
7214;DHT22;3648;50.614;13.830;2023-10-08T16:13:41;13.10;99.90
7214;DHT22;3648;50.614;13.830;2023-10-08T16:16:08;13.00;99.90